Time;durP1;ratioP1;P1;durP2;ratioP2;P2;SDS_P1;SDS_P2;PMS_P1;PMS_P2;Temp;Humidity;BMP_temperature;BMP_pressure;BME280_temperature;BME280_humidity;BME280_pressure;Samples;Min_cycle;Max_cycle;Signal;HPM_P1;HPM_P2
2021/12/23 00:00:42;;;;;;;101.15;39.10;;;;;;;-144.47;100.00;61586.06;5001568;28;20475;-78
2021/12/23 00:03:07;;;;;;;70.18;38.80;;;;;;;-144.47;100.00;61586.06;5001015;28;20037;-77
2021/12/23 00:05:33;;;;;;;68.57;39.50;;;;;;;-144.47;100.00;61586.06;4979396;28;20432;-78
2021/12/23 00:07:59;;;;;;;93.47;39.88;;;;;;;-144.47;100.00;61586.06;5002929;28;20505;-78
2021/12/23 00:10:24;;;;;;;112.88;37.83;;;;;;;-144.47;100.00;61586.06;5002437;28;20109;-77
2021/12/23 00:12:50;;;;;;;78.13;38.17;;;;;;;-144.47;100.00;61586.06;4999531;28;20104;-77
2021/12/23 00:15:37;;;;;;;74.40;39.28;;;;;;;-144.47;100.00;61586.06;5001956;28;20030;-77
2021/12/23 00:23:28;;;;;;;84.57;40.83;;;;;;;-144.47;100.00;61586.06;4998162;28;20491;-78
2021/12/23 00:25:56;;;;;;;76.18;36.63;;;;;;;-144.47;100.00;61586.06;5002820;28;20041;-77
2021/12/23 00:28:22;;;;;;;71.10;38.42;;;;;;;-144.47;100.00;61586.06;5002482;28;20240;-76
2021/12/23 00:30:47;;;;;;;65.90;37.75;;;;;;;-144.47;100.00;61586.06;4979930;28;20566;-78
2021/12/23 00:33:13;;;;;;;70.90;37.47;;;;;;;-144.47;100.00;61586.06;5000980;28;20069;-77
2021/12/23 00:35:39;;;;;;;67.38;36.97;;;;;;;-144.47;100.00;61586.06;5000202;28;20033;-76
2021/12/23 00:38:13;;;;;;;63.72;36.78;;;;;;;-144.47;100.00;61586.06;5003681;28;20043;-77
2021/12/23 00:40:39;;;;;;;67.70;37.78;;;;;;;-144.47;100.00;61586.06;5000849;28;20196;-78
2021/12/23 00:43:04;;;;;;;64.05;36.92;;;;;;;-144.47;100.00;61586.06;4984454;28;20518;-77
2021/12/23 00:45:30;;;;;;;72.68;39.45;;;;;;;-144.47;100.00;61586.06;5001303;28;20076;-77
2021/12/23 00:47:55;;;;;;;75.13;38.88;;;;;;;-144.47;100.00;61586.06;4998888;28;20073;-77
2021/12/23 00:50:21;;;;;;;68.63;36.05;;;;;;;-144.47;100.00;61586.06;5001856;28;20030;-77
2021/12/23 00:52:54;;;;;;;66.20;36.75;;;;;;;-144.47;100.00;61586.06;4999429;28;20124;-77
2021/12/23 00:55:20;;;;;;;67.53;39.05;;;;;;;-144.47;100.00;61586.06;5000943;28;20493;-77
2021/12/23 00:57:46;;;;;;;75.63;39.78;;;;;;;-144.47;100.00;61586.06;4999767;28;20034;-77
2021/12/23 01:00:15;;;;;;;70.32;39.63;;;;;;;-144.47;100.00;61586.06;5003457;28;20035;-77
2021/12/23 01:02:44;;;;;;;75.07;38.07;;;;;;;-144.47;100.00;61586.06;5001873;28;20060;-76
2021/12/23 01:05:11;;;;;;;73.95;39.63;;;;;;;-144.47;100.00;61586.06;5005215;28;20284;-76
2021/12/23 01:07:36;;;;;;;71.72;39.75;;;;;;;-144.47;100.00;61586.06;5003607;28;20121;-76
2021/12/23 01:10:03;;;;;;;66.07;36.00;;;;;;;-144.47;100.00;61586.06;5002800;28;20153;-78
2021/12/23 01:12:35;;;;;;;70.55;37.90;;;;;;;-144.47;100.00;61586.06;5000843;28;20041;-77
2021/12/23 01:17:59;;;;;;;63.65;36.42;;;;;;;-144.47;100.00;61586.06;4950147;28;20217;-77
2021/12/23 01:20:32;;;;;;;71.10;38.50;;;;;;;-144.47;100.00;61586.06;5001165;28;20034;-77
2021/12/23 01:23:00;;;;;;;68.97;39.25;;;;;;;-144.47;100.00;61586.06;5005386;28;20034;-76
2021/12/23 01:25:27;;;;;;;72.88;38.13;;;;;;;-144.47;100.00;61586.06;5000973;28;20034;-76
2021/12/23 01:27:53;;;;;;;69.43;37.95;;;;;;;-144.47;100.00;61586.06;5004275;28;20036;-77
2021/12/23 01:30:20;;;;;;;70.20;36.97;;;;;;;-144.47;100.00;61586.06;5001354;28;20038;-76
2021/12/23 01:32:49;;;;;;;63.35;35.55;;;;;;;-144.47;100.00;61586.06;5003677;28;20030;-76
2021/12/23 01:35:15;;;;;;;68.50;35.90;;;;;;;-144.47;100.00;61586.06;5004609;28;20037;-77
2021/12/23 01:37:42;;;;;;;71.82;38.92;;;;;;;-144.47;100.00;61586.06;5004779;28;20479;-77
2021/12/23 01:40:10;;;;;;;71.90;39.10;;;;;;;-144.47;100.00;61586.06;5003577;28;20030;-76
2021/12/23 01:42:35;;;;;;;63.15;37.22;;;;;;;-144.47;100.00;61586.06;4987484;28;20809;-77
2021/12/23 01:45:03;;;;;;;69.78;38.97;;;;;;;-144.47;100.00;61586.06;5000723;28;20022;-76
2021/12/23 01:47:29;;;;;;;69.97;37.03;;;;;;;-144.47;100.00;61586.06;5003953;28;20050;-76
2021/12/23 01:49:55;;;;;;;72.75;38.45;;;;;;;-144.47;100.00;61586.06;5001254;28;20030;-76
2021/12/23 01:52:20;;;;;;;73.13;39.38;;;;;;;-144.47;100.00;61586.06;5004373;28;20100;-77
2021/12/23 01:54:46;;;;;;;76.75;37.05;;;;;;;-144.47;100.00;61586.06;4999306;28;20050;-77
2021/12/23 01:57:13;;;;;;;79.95;37.65;;;;;;;-144.47;100.00;61586.06;5000753;28;20042;-77
2021/12/23 01:59:39;;;;;;;74.35;39.20;;;;;;;-144.47;100.00;61586.06;5000358;28;20049;-77
2021/12/23 02:02:05;;;;;;;79.05;40.58;;;;;;;-144.47;100.00;61586.06;5002600;28;20042;-76
2021/12/23 02:04:30;;;;;;;77.10;40.65;;;;;;;-144.47;100.00;61586.06;5004223;28;20030;-77
2021/12/23 02:06:56;;;;;;;76.03;40.22;;;;;;;-144.47;100.00;61586.06;5001774;28;20486;-77
2021/12/23 02:09:22;;;;;;;72.95;39.70;;;;;;;-144.47;100.00;61586.06;4999116;28;20036;-77
2021/12/23 02:11:47;;;;;;;76.55;38.35;;;;;;;-144.47;100.00;61586.06;5006072;28;20027;-77
2021/12/23 02:14:13;;;;;;;75.85;39.70;;;;;;;-144.47;100.00;61586.06;5003316;28;20367;-77
2021/12/23 02:16:38;;;;;;;69.32;39.42;;;;;;;-144.47;100.00;61586.06;5002101;28;20498;-78
2021/12/23 02:19:12;;;;;;;71.47;39.65;;;;;;;-144.47;100.00;61586.06;5002154;28;20038;-77
2021/12/23 02:21:41;;;;;;;80.65;40.88;;;;;;;-144.47;100.00;61586.06;5002590;28;20038;-76
2021/12/23 02:24:07;;;;;;;68.97;39.38;;;;;;;-144.47;100.00;61586.06;4985025;28;20030;-76
2021/12/23 02:26:37;;;;;;;82.28;39.80;;;;;;;-144.47;100.00;61586.06;5002895;28;20088;-77
2021/12/23 02:29:03;;;;;;;85.97;42.15;;;;;;;-144.47;100.00;61586.06;5001458;28;20526;-77
2021/12/23 02:31:28;;;;;;;86.00;40.47;;;;;;;-144.47;100.00;61586.06;5001172;28;20064;-77
2021/12/23 02:33:54;;;;;;;79.25;40.67;;;;;;;-144.47;100.00;61586.06;5000316;28;20033;-77
2021/12/23 02:36:19;;;;;;;75.70;40.85;;;;;;;-144.47;100.00;61586.06;5003470;28;20386;-76
2021/12/23 02:38:45;;;;;;;88.00;42.05;;;;;;;-144.47;100.00;61586.06;5001413;28;20060;-77
2021/12/23 02:41:10;;;;;;;78.18;38.63;;;;;;;-144.47;100.00;61586.06;4988875;28;20092;-76
2021/12/23 02:43:36;;;;;;;76.55;39.63;;;;;;;-144.47;100.00;61586.06;5002098;28;20030;-77
2021/12/23 02:46:03;;;;;;;128.95;42.25;;;;;;;-144.47;100.00;61586.06;5000520;28;20089;-78
2021/12/23 02:48:34;;;;;;;79.90;40.92;;;;;;;-144.47;100.00;61586.06;5002796;28;20396;-78
2021/12/23 02:51:06;;;;;;;83.38;43.72;;;;;;;-144.47;100.00;61586.06;4999186;28;20432;-77
2021/12/23 02:53:31;;;;;;;77.13;43.35;;;;;;;-144.47;100.00;61586.06;5002638;28;20038;-78
2021/12/23 02:55:59;;;;;;;88.97;41.95;;;;;;;-144.47;100.00;61586.06;5000140;28;20048;-77
2021/12/23 02:58:25;;;;;;;86.30;42.30;;;;;;;-144.47;100.00;61586.06;5003263;28;20026;-77
2021/12/23 03:00:52;;;;;;;90.93;42.92;;;;;;;-144.47;100.00;61586.06;4999995;28;20030;-77
2021/12/23 03:03:19;;;;;;;77.35;40.08;;;;;;;-144.47;100.00;61586.06;5002298;28;20042;-76
2021/12/23 03:05:53;;;;;;;103.75;40.47;;;;;;;-144.47;100.00;61586.06;5000333;28;20540;-76
2021/12/23 03:08:28;;;;;;;82.78;41.10;;;;;;;-144.47;100.00;61586.06;5002450;28;20044;-76
2021/12/23 03:10:53;;;;;;;75.78;40.10;;;;;;;-144.47;100.00;61586.06;5008219;28;20026;-75
2021/12/23 03:13:19;;;;;;;102.80;40.42;;;;;;;-144.47;100.00;61586.06;5003523;28;20386;-77
2021/12/23 03:15:45;;;;;;;82.45;42.00;;;;;;;-144.47;100.00;61586.06;5000990;28;20379;-77
2021/12/23 03:18:10;;;;;;;83.65;40.72;;;;;;;-144.47;100.00;61586.06;5001444;28;20058;-77
2021/12/23 03:20:36;;;;;;;79.32;40.85;;;;;;;-144.47;100.00;61586.06;5000670;28;20057;-76
2021/12/23 03:23:01;;;;;;;87.43;40.67;;;;;;;-144.47;100.00;61586.06;5000395;28;20030;-77
2021/12/23 03:25:27;;;;;;;90.55;41.60;;;;;;;-144.47;100.00;61586.06;5006093;28;20446;-77
2021/12/23 03:27:52;;;;;;;86.53;42.15;;;;;;;-144.47;100.00;61586.06;4981850;28;20543;-77
2021/12/23 03:30:17;;;;;;;87.63;41.92;;;;;;;-144.47;100.00;61586.06;5002021;28;20029;-77
2021/12/23 03:32:43;;;;;;;89.53;39.83;;;;;;;-144.47;100.00;61586.06;5000051;28;20038;-77
2021/12/23 03:35:08;;;;;;;84.00;40.33;;;;;;;-144.47;100.00;61586.06;5000849;28;20097;-77
2021/12/23 03:37:34;;;;;;;83.32;40.85;;;;;;;-144.47;100.00;61586.06;5001610;28;20026;-78
2021/12/23 03:40:00;;;;;;;89.45;39.17;;;;;;;-144.47;100.00;61586.06;5002806;28;20536;-77
2021/12/23 03:42:25;;;;;;;77.22;41.08;;;;;;;-144.47;100.00;61586.06;5002338;28;20132;-77
2021/12/23 03:44:51;;;;;;;84.25;41.83;;;;;;;-144.47;100.00;61586.06;4965334;28;20060;-77
2021/12/23 03:47:16;;;;;;;80.13;41.17;;;;;;;-144.47;100.00;61586.06;5001614;28;20041;-76
2021/12/23 03:49:42;;;;;;;77.90;39.70;;;;;;;-144.47;100.00;61586.06;5000157;28;20372;-77
2021/12/23 03:52:07;;;;;;;77.50;40.25;;;;;;;-144.47;100.00;61586.06;5000938;28;20038;-76
2021/12/23 03:54:33;;;;;;;92.90;42.30;;;;;;;-144.47;100.00;61586.06;5001323;28;20036;-76
2021/12/23 03:56:58;;;;;;;94.25;40.38;;;;;;;-144.47;100.00;61586.06;4999700;28;20501;-76
2021/12/23 03:59:24;;;;;;;79.90;39.70;;;;;;;-144.47;100.00;61586.06;5002117;28;20026;-76
2021/12/23 04:01:49;;;;;;;84.00;40.30;;;;;;;-144.47;100.00;61586.06;4999856;28;20055;-77
2021/12/23 04:04:15;;;;;;;76.97;38.85;;;;;;;-144.47;100.00;61586.06;5001393;28;20057;-77
2021/12/23 04:06:40;;;;;;;78.45;40.60;;;;;;;-144.47;100.00;61586.06;4982740;28;20109;-78
2021/12/23 04:09:06;;;;;;;76.93;41.10;;;;;;;-144.47;100.00;61586.06;5004763;28;20076;-76
2021/12/23 04:11:32;;;;;;;76.35;40.60;;;;;;;-144.47;100.00;61586.06;4998089;28;20037;-77
2021/12/23 04:13:58;;;;;;;76.65;40.85;;;;;;;-144.47;100.00;61586.06;5002049;28;20029;-77
2021/12/23 04:16:24;;;;;;;80.28;40.72;;;;;;;-144.47;100.00;61586.06;4998654;28;20042;-77
2021/12/23 04:18:50;;;;;;;76.28;40.45;;;;;;;-144.47;100.00;61586.06;4984072;28;20110;-77
2021/12/23 04:21:16;;;;;;;82.20;41.92;;;;;;;-144.47;100.00;61586.06;4999329;28;20046;-77
2021/12/23 04:23:41;;;;;;;70.47;41.00;;;;;;;-144.47;100.00;61586.06;4982074;28;20113;-77
2021/12/23 04:26:09;;;;;;;78.50;41.50;;;;;;;-144.47;100.00;61586.06;5000186;28;20065;-77
2021/12/23 04:28:45;;;;;;;72.80;39.42;;;;;;;-144.47;100.00;61586.06;4981718;28;20510;-77
2021/12/23 04:31:12;;;;;;;74.30;39.38;;;;;;;-144.47;100.00;61586.06;5000728;28;20042;-77
2021/12/23 04:33:37;;;;;;;68.15;38.60;;;;;;;-144.47;100.00;61586.06;4986145;28;20046;-77
2021/12/23 04:36:03;;;;;;;71.93;39.97;;;;;;;-144.47;100.00;61586.06;5004482;28;20069;-77
2021/12/23 04:38:28;;;;;;;70.38;38.97;;;;;;;-144.47;100.00;61586.06;5006078;28;20026;-78
2021/12/23 04:40:54;;;;;;;69.50;38.70;;;;;;;-144.47;100.00;61586.06;5006346;28;20685;-77
2021/12/23 04:43:19;;;;;;;60.75;36.22;;;;;;;-144.47;100.00;61586.06;5005488;28;20112;-77
2021/12/23 04:45:45;;;;;;;62.53;36.45;;;;;;;-144.47;100.00;61586.06;5003284;28;20025;-78
2021/12/23 04:48:10;;;;;;;59.60;35.78;;;;;;;-144.47;100.00;61586.06;5004228;28;20416;-78
2021/12/23 04:50:36;;;;;;;55.67;34.00;;;;;;;-144.47;100.00;61586.06;5003994;28;20088;-77
2021/12/23 04:53:01;;;;;;;56.20;34.65;;;;;;;-144.47;100.00;61586.06;5004454;28;20113;-77
2021/12/23 04:55:28;;;;;;;65.72;36.08;;;;;;;-144.47;100.00;61586.06;5005002;28;20029;-76
2021/12/23 04:57:54;;;;;;;56.85;35.13;;;;;;;-144.47;100.00;61586.06;5005541;28;20109;-76
2021/12/23 05:00:20;;;;;;;61.70;35.53;;;;;;;-144.47;100.00;61586.06;5001931;28;20372;-77
2021/12/23 05:02:47;;;;;;;61.55;36.38;;;;;;;-144.47;100.00;61586.06;5004798;28;20107;-77
2021/12/23 05:05:13;;;;;;;65.55;37.65;;;;;;;-144.47;100.00;61586.06;5002713;28;20041;-77
2021/12/23 05:07:39;;;;;;;63.30;36.85;;;;;;;-144.47;100.00;61586.06;4985658;28;20030;-76
2021/12/23 05:10:10;;;;;;;56.70;34.83;;;;;;;-144.47;100.00;61586.06;5004274;28;20045;-77
2021/12/23 05:12:42;;;;;;;60.20;35.83;;;;;;;-144.47;100.00;61586.06;5002702;28;20039;-78
2021/12/23 05:15:09;;;;;;;59.88;36.20;;;;;;;-144.47;100.00;61586.06;5004045;28;20053;-77
2021/12/23 05:17:34;;;;;;;54.83;32.55;;;;;;;-144.47;100.00;61586.06;5002765;28;20061;-76
2021/12/23 05:20:00;;;;;;;57.70;34.60;;;;;;;-144.47;100.00;61586.06;5004156;28;20061;-76
2021/12/23 05:22:25;;;;;;;58.85;36.47;;;;;;;-144.47;100.00;61586.06;5001068;28;20034;-77
2021/12/23 05:24:52;;;;;;;59.10;35.70;;;;;;;-144.47;100.00;61586.06;5008728;28;20029;-75
2021/12/23 05:27:17;;;;;;;56.33;35.22;;;;;;;-144.47;100.00;61586.06;5002176;28;20038;-77
2021/12/23 05:29:43;;;;;;;55.15;34.85;;;;;;;-144.47;100.00;61586.06;5003746;28;20114;-77
2021/12/23 05:32:08;;;;;;;53.47;33.13;;;;;;;-144.47;100.00;61586.06;5003400;28;20069;-78
2021/12/23 05:34:34;;;;;;;52.58;33.80;;;;;;;-144.47;100.00;61586.06;5002077;28;20034;-76
2021/12/23 05:36:59;;;;;;;53.72;33.72;;;;;;;-144.47;100.00;61586.06;5004319;28;20045;-77
2021/12/23 05:39:25;;;;;;;54.30;32.88;;;;;;;-144.47;100.00;61586.06;5001056;28;20494;-77
2021/12/23 05:41:51;;;;;;;55.00;34.05;;;;;;;-144.47;100.00;61586.06;5005378;28;20033;-77
2021/12/23 05:44:16;;;;;;;54.30;34.10;;;;;;;-144.47;100.00;61586.06;4985827;28;20037;-78
2021/12/23 05:46:42;;;;;;;52.45;34.55;;;;;;;-144.47;100.00;61586.06;5002647;28;20413;-77
2021/12/23 05:49:07;;;;;;;54.53;35.25;;;;;;;-144.47;100.00;61586.06;5003054;28;20063;-78
2021/12/23 05:51:33;;;;;;;57.72;35.90;;;;;;;-144.47;100.00;61586.06;5003742;28;20105;-76
2021/12/23 05:53:58;;;;;;;59.88;35.70;;;;;;;-144.47;100.00;61586.06;5001322;28;20065;-77
2021/12/23 05:56:25;;;;;;;60.55;36.28;;;;;;;-144.47;100.00;61586.06;5004044;28;20350;-78
2021/12/23 05:58:50;;;;;;;55.03;33.78;;;;;;;-144.47;100.00;61586.06;5000302;28;20433;-78
2021/12/23 06:01:16;;;;;;;57.38;35.75;;;;;;;-144.47;100.00;61586.06;5003877;28;20141;-78
2021/12/23 06:03:41;;;;;;;54.33;33.05;;;;;;;-144.47;100.00;61586.06;5002486;28;20049;-79
2021/12/23 06:06:07;;;;;;;59.35;35.30;;;;;;;-144.47;100.00;61586.06;5002721;28;20022;-78
2021/12/23 06:08:33;;;;;;;52.65;32.97;;;;;;;-144.47;100.00;61586.06;5003258;28;20394;-79
2021/12/23 06:10:58;;;;;;;52.08;32.63;;;;;;;-144.47;100.00;61586.06;5004644;28;20072;-78
2021/12/23 06:13:24;;;;;;;50.05;33.40;;;;;;;-144.47;100.00;61586.06;5004252;28;20531;-79
2021/12/23 06:15:49;;;;;;;54.08;33.47;;;;;;;-144.47;100.00;61586.06;5003082;28;20065;-76
2021/12/23 06:18:14;;;;;;;49.42;32.83;;;;;;;-144.47;100.00;61586.06;5005193;28;20463;-76
2021/12/23 06:20:40;;;;;;;49.63;32.20;;;;;;;-144.47;100.00;61586.06;4984753;28;20228;-76
2021/12/23 06:23:06;;;;;;;53.40;33.53;;;;;;;-144.47;100.00;61586.06;5007587;28;20037;-75
2021/12/23 06:25:32;;;;;;;50.58;32.83;;;;;;;-144.47;100.00;61586.06;4989582;28;20042;-75
2021/12/23 06:27:57;;;;;;;48.10;31.13;;;;;;;-144.47;100.00;61586.06;4989665;28;20414;-74
2021/12/23 06:30:23;;;;;;;49.45;32.53;;;;;;;-144.47;100.00;61586.06;5010318;28;20025;-74
2021/12/23 06:32:52;;;;;;;48.15;31.92;;;;;;;-144.47;100.00;61586.06;5007501;28;20441;-75
2021/12/23 06:35:20;;;;;;;49.17;33.10;;;;;;;-144.47;100.00;61586.06;5000812;28;20514;-76
2021/12/23 06:37:47;;;;;;;49.88;32.03;;;;;;;-144.47;100.00;61586.06;5003241;28;20027;-77
2021/12/23 06:40:13;;;;;;;48.97;33.40;;;;;;;-144.47;100.00;61586.06;4984284;28;20482;-75
2021/12/23 06:42:39;;;;;;;49.42;32.13;;;;;;;-144.47;100.00;61586.06;4987728;28;20103;-76
2021/12/23 06:45:06;;;;;;;43.75;29.55;;;;;;;-144.47;100.00;61586.06;4311230;28;10000703;-75
2021/12/23 06:47:33;;;;;;;49.05;31.20;;;;;;;-144.47;100.00;61586.06;5000730;28;20660;-77
2021/12/23 06:49:58;;;;;;;52.15;33.20;;;;;;;-144.47;100.00;61586.06;5004941;28;20478;-77
2021/12/23 06:52:24;;;;;;;53.92;32.70;;;;;;;-144.47;100.00;61586.06;5003729;28;20041;-77
2021/12/23 06:54:53;;;;;;;52.03;33.45;;;;;;;-144.47;100.00;61586.06;5001476;28;20505;-76
2021/12/23 06:57:20;;;;;;;54.92;34.78;;;;;;;-144.47;100.00;61586.06;5000019;28;20065;-76
2021/12/23 06:59:45;;;;;;;50.10;32.97;;;;;;;-144.47;100.00;61586.06;4658097;28;9999749;-74
2021/12/23 07:02:11;;;;;;;47.80;32.80;;;;;;;-144.47;100.00;61586.06;5002379;28;20411;-75
2021/12/23 07:04:39;;;;;;;52.65;32.50;;;;;;;-144.47;100.00;61586.06;5002112;28;20030;-77
2021/12/23 07:07:11;;;;;;;50.13;32.45;;;;;;;-144.47;100.00;61586.06;5001494;28;20378;-76
2021/12/23 07:09:45;;;;;;;47.85;30.98;;;;;;;-144.47;100.00;61586.06;5000640;28;20495;-76
2021/12/23 07:12:12;;;;;;;51.75;32.42;;;;;;;-144.47;100.00;61586.06;4998583;28;20045;-77
2021/12/23 07:14:39;;;;;;;49.63;32.75;;;;;;;-144.47;100.00;61586.06;4999827;28;20057;-77
2021/12/23 07:17:06;;;;;;;53.33;33.17;;;;;;;-144.47;100.00;61586.06;4985437;28;20495;-76
2021/12/23 07:19:33;;;;;;;55.03;32.60;;;;;;;-144.47;100.00;61586.06;5002266;28;20528;-77
2021/12/23 07:21:58;;;;;;;50.63;31.67;;;;;;;-144.47;100.00;61586.06;4982507;28;20112;-75
2021/12/23 07:24:24;;;;;;;54.53;31.58;;;;;;;-144.47;100.00;61586.06;5002985;28;20116;-77
2021/12/23 07:26:49;;;;;;;49.03;30.92;;;;;;;-144.47;100.00;61586.06;4999952;28;20419;-75
2021/12/23 07:29:15;;;;;;;48.25;31.52;;;;;;;-144.47;100.00;61586.06;5002033;28;20026;-76
2021/12/23 07:31:40;;;;;;;48.30;30.38;;;;;;;-144.47;100.00;61586.06;5000824;28;20041;-75
2021/12/23 07:34:06;;;;;;;47.95;30.67;;;;;;;-144.47;100.00;61586.06;5001031;28;20125;-78
2021/12/23 07:36:32;;;;;;;48.15;30.60;;;;;;;-144.47;100.00;61586.06;5002288;28;20080;-77
2021/12/23 07:38:58;;;;;;;47.58;30.50;;;;;;;-144.47;100.00;61586.06;4999683;28;20057;-77
2021/12/23 07:41:27;;;;;;;45.95;29.92;;;;;;;-144.47;100.00;61586.06;5002776;28;20061;-77
2021/12/23 07:44:03;;;;;;;47.10;30.42;;;;;;;-144.47;100.00;61586.06;4989073;28;20029;-77
2021/12/23 07:46:31;;;;;;;48.67;31.88;;;;;;;-144.47;100.00;61586.06;5005881;28;20046;-77
2021/12/23 07:48:57;;;;;;;50.20;31.63;;;;;;;-144.47;100.00;61586.06;4999531;28;20030;-77
2021/12/23 07:51:24;;;;;;;46.70;30.33;;;;;;;-144.47;100.00;61586.06;5006984;28;20049;-77
2021/12/23 07:53:50;;;;;;;47.28;32.30;;;;;;;-144.47;100.00;61586.06;4999850;28;20471;-77
2021/12/23 07:56:16;;;;;;;47.13;30.80;;;;;;;-144.47;100.00;61586.06;5002114;28;20026;-76
2021/12/23 07:58:42;;;;;;;50.72;32.47;;;;;;;-144.47;100.00;61586.06;5002971;28;20462;-76
2021/12/23 08:01:07;;;;;;;51.47;33.05;;;;;;;-144.47;100.00;61586.06;5001060;28;20575;-76
2021/12/23 08:03:33;;;;;;;51.47;33.20;;;;;;;-144.47;100.00;61586.06;4999797;28;20153;-76
2021/12/23 08:05:58;;;;;;;50.85;33.38;;;;;;;-144.47;100.00;61586.06;5002104;28;20033;-77
2021/12/23 08:08:23;;;;;;;50.40;32.60;;;;;;;-144.47;100.00;61586.06;4999069;28;20058;-77
2021/12/23 08:10:50;;;;;;;52.17;32.58;;;;;;;-144.47;100.00;61586.06;5002265;28;20033;-78
2021/12/23 08:13:16;;;;;;;52.53;34.17;;;;;;;-144.47;100.00;61586.06;4998890;28;20041;-75
2021/12/23 08:15:42;;;;;;;56.35;35.15;;;;;;;-144.47;100.00;61586.06;5003277;28;20540;-75
2021/12/23 08:18:08;;;;;;;51.90;34.08;;;;;;;-144.47;100.00;61586.06;4999553;28;20033;-76
2021/12/23 08:20:34;;;;;;;52.80;34.60;;;;;;;-144.47;100.00;61586.06;4984383;28;20038;-76
2021/12/23 08:22:59;;;;;;;49.92;32.80;;;;;;;-144.47;100.00;61586.06;5001804;28;20030;-77
2021/12/23 08:25:25;;;;;;;52.28;32.22;;;;;;;-144.47;100.00;61586.06;4998293;28;20034;-77
2021/12/23 08:27:50;;;;;;;50.70;33.53;;;;;;;-144.47;100.00;61586.06;5002012;28;20482;-76
2021/12/23 08:30:18;;;;;;;49.20;31.88;;;;;;;-144.47;100.00;61586.06;4999145;28;20038;-77
2021/12/23 08:32:45;;;;;;;47.55;31.45;;;;;;;-144.47;100.00;61586.06;4999592;28;20048;-77
2021/12/23 08:35:11;;;;;;;47.92;29.90;;;;;;;-144.47;100.00;61586.06;5000115;28;20102;-76
2021/12/23 08:37:37;;;;;;;48.08;31.55;;;;;;;-144.47;100.00;61586.06;4999257;28;20145;-76
2021/12/23 08:40:05;;;;;;;48.20;31.42;;;;;;;-144.47;100.00;61586.06;5001289;28;20113;-77
2021/12/23 08:42:31;;;;;;;46.03;31.10;;;;;;;-144.47;100.00;61586.06;4998564;28;20117;-75
2021/12/23 08:44:56;;;;;;;45.08;28.63;;;;;;;-144.47;100.00;61586.06;5002271;28;20468;-76
2021/12/23 08:47:22;;;;;;;46.05;30.88;;;;;;;-144.47;100.00;61586.06;5000760;28;20517;-77
2021/12/23 08:49:47;;;;;;;44.95;29.02;;;;;;;-144.47;100.00;61586.06;4998794;28;20035;-76
2021/12/23 08:52:13;;;;;;;46.78;30.85;;;;;;;-144.47;100.00;61586.06;5000615;28;20446;-78
2021/12/23 08:54:41;;;;;;;44.33;30.33;;;;;;;-144.47;100.00;61586.06;5000138;28;20038;-76
2021/12/23 08:57:07;;;;;;;48.10;30.95;;;;;;;-144.47;100.00;61586.06;4999829;28;20026;-77
2021/12/23 08:59:32;;;;;;;50.03;32.05;;;;;;;-144.47;100.00;61586.06;5000271;28;20490;-75
2021/12/23 09:01:58;;;;;;;49.80;33.05;;;;;;;-144.47;100.00;61586.06;4999318;28;20447;-78
2021/12/23 09:04:24;;;;;;;49.03;32.38;;;;;;;-144.47;100.00;61586.06;5001662;28;20034;-76
2021/12/23 09:06:49;;;;;;;50.40;30.83;;;;;;;-144.47;100.00;61586.06;4997600;28;20034;-75
2021/12/23 09:09:15;;;;;;;52.65;34.15;;;;;;;-144.47;100.00;61586.06;5000504;28;20035;-76
2021/12/23 09:11:40;;;;;;;51.45;33.78;;;;;;;-144.47;100.00;61586.06;4999240;28;20109;-76
2021/12/23 09:14:06;;;;;;;51.25;33.10;;;;;;;-144.47;100.00;61586.06;4999158;28;20041;-75
2021/12/23 09:16:32;;;;;;;52.08;33.83;;;;;;;-144.47;100.00;61586.06;5003830;28;20033;-75
2021/12/23 09:18:58;;;;;;;54.05;34.40;;;;;;;-144.47;100.00;61586.06;4999929;28;20022;-76
2021/12/23 09:21:24;;;;;;;51.20;33.42;;;;;;;-144.47;100.00;61586.06;5004614;28;20029;-75
2021/12/23 09:23:49;;;;;;;53.58;34.50;;;;;;;-144.47;100.00;61586.06;5002154;28;20042;-76
2021/12/23 09:26:15;;;;;;;52.95;33.47;;;;;;;-144.47;100.00;61586.06;5004331;28;20065;-75
2021/12/23 09:33:51;;;;;;;53.33;34.72;;;;;;;-144.47;100.00;61586.06;5001090;28;20121;-76
2021/12/23 09:36:17;;;;;;;58.00;35.97;;;;;;;-144.47;100.00;61586.06;5003789;28;20181;-76
2021/12/23 09:38:43;;;;;;;55.03;35.63;;;;;;;-144.47;100.00;61586.06;5002382;28;20033;-76
2021/12/23 09:41:14;;;;;;;52.90;33.63;;;;;;;-144.47;100.00;61586.06;5003073;28;20058;-76
2021/12/23 09:43:41;;;;;;;56.67;34.65;;;;;;;-144.47;100.00;61586.06;5002716;28;20482;-76
2021/12/23 09:46:10;;;;;;;62.72;38.33;;;;;;;-144.47;100.00;61586.06;5006137;28;20121;-76
2021/12/23 09:48:38;;;;;;;57.25;36.03;;;;;;;-144.47;100.00;61586.06;5002662;28;20041;-74
2021/12/23 09:51:07;;;;;;;58.45;36.45;;;;;;;-144.47;100.00;61586.06;5001816;28;20113;-75
2021/12/23 09:53:34;;;;;;;60.33;37.88;;;;;;;-144.47;100.00;61586.06;4985708;28;20513;-76
2021/12/23 09:56:00;;;;;;;57.03;35.97;;;;;;;-144.47;100.00;61586.06;5000104;28;20030;-76
2021/12/23 09:58:26;;;;;;;53.95;35.00;;;;;;;-144.47;100.00;61586.06;5004119;28;20462;-77
2021/12/23 10:00:53;;;;;;;52.10;33.80;;;;;;;-144.47;100.00;61586.06;5000666;28;20058;-76
2021/12/23 10:03:22;;;;;;;55.42;36.20;;;;;;;-144.47;100.00;61586.06;5001906;28;20392;-75
2021/12/23 10:05:48;;;;;;;54.85;35.88;;;;;;;-144.47;100.00;61586.06;4999804;28;20046;-76
2021/12/23 10:08:14;;;;;;;54.95;33.97;;;;;;;-144.47;100.00;61586.06;5002881;28;20041;-75
2021/12/23 10:10:48;;;;;;;58.13;36.72;;;;;;;-144.47;100.00;61586.06;5001561;28;20030;-75
2021/12/23 10:38:20;;;;;;;55.67;35.05;;;;;;;-144.47;100.00;61586.06;5004204;28;20074;-76
2021/12/23 10:40:57;;;;;;;60.13;36.95;;;;;;;-144.47;100.00;61586.06;5001386;28;20466;-76
2021/12/23 10:43:25;;;;;;;55.40;34.60;;;;;;;-144.47;100.00;61586.06;4999690;28;20125;-75
2021/12/23 10:45:55;;;;;;;57.15;36.38;;;;;;;-144.47;100.00;61586.06;5006742;28;20069;-76
2021/12/23 10:48:25;;;;;;;53.90;34.70;;;;;;;-144.47;100.00;61586.06;5000045;28;20497;-76
2021/12/23 10:50:58;;;;;;;55.83;36.08;;;;;;;-144.47;100.00;61586.06;5002780;28;20460;-76
2021/12/23 10:53:46;;;;;;;57.22;36.10;;;;;;;-144.47;100.00;61586.06;5003079;28;20042;-76
2021/12/23 10:59:07;;;;;;;56.55;36.00;;;;;;;-144.47;100.00;61586.06;5003982;28;20080;-75
2021/12/23 11:01:36;;;;;;;53.40;33.83;;;;;;;-144.47;100.00;61586.06;5002584;28;20037;-76
2021/12/23 11:04:04;;;;;;;51.47;34.08;;;;;;;-144.47;100.00;61586.06;4999592;28;20041;-76
2021/12/23 11:06:46;;;;;;;54.15;35.42;;;;;;;-144.47;100.00;61586.06;4984293;28;20113;-75
2021/12/23 11:09:37;;;;;;;53.63;34.78;;;;;;;-144.47;100.00;61586.06;5002267;28;20117;-75
2021/12/23 11:27:21;;;;;;;53.15;34.03;;;;;;;-144.47;100.00;61586.06;5002509;28;20497;-75
2021/12/23 11:30:17;;;;;;;50.17;33.22;;;;;;;-144.47;100.00;61586.06;4999894;28;20156;-74
2021/12/23 11:32:27;;;;;;;51.97;33.70;;;;;;;-144.47;100.00;61586.06;4987380;28;20046;-76
2021/12/23 11:37:50;;;;;;;50.60;33.15;;;;;;;-144.47;100.00;61586.06;5003077;28;20104;-75
2021/12/23 11:40:51;;;;;;;52.55;33.10;;;;;;;-144.47;100.00;61586.06;4996733;28;20414;-76
2021/12/23 11:45:33;;;;;;;51.88;33.40;;;;;;;-144.47;100.00;61586.06;5003139;28;20116;-75
2021/12/23 11:48:02;;;;;;;49.97;33.70;;;;;;;-144.47;100.00;61586.06;5015357;23;20062;-78
2021/12/23 11:50:41;;;;;;;51.58;34.55;;;;;;;-144.47;100.00;61586.06;4990351;28;20557;-77
2021/12/23 11:53:07;;;;;;;55.58;35.60;;;;;;;-144.47;100.00;61586.06;5000612;28;20098;-76
2021/12/23 11:55:33;;;;;;;52.33;35.70;;;;;;;-144.47;100.00;61586.06;5004786;28;20538;-79